Urb Verdemar, Puerto Rico
Current Conditions -  °F | °C
As of 12:53 PM on Sunday 21 Dec 2014 (Local Time) from TJNR Reporting Station
Clear Clear  
Wind Chill: 82°   Ceiling: Unl
Heat Index: 85°   Visibility: 10mi
Dew Point: 68°   Wind: 12mph
Humidity: 62%   Direction: 60°ENE
Pressure: 30.09"   Gusts: NA
Location:  18.1684°N, 65.7486°W
Report Text: TJNR 211653Z AUTO 06010KT 10SM CLR 28/20 A3009 RMK AO2 SLP188 T02780200 $
Loading
Personal Weather Stations






























Interactive Weather Map New forecast layout! Learn more

10-Day Weather Forecast

Advertisements
Track Severe Weather on mobile